KQSI

2018-05-23 20:00:09Z

Plaintext report →

Current Status: Clear

Temperature
High35.9 °C96.6 °F
Current28.8 °C83.8 °F
Low29.0 °C84.2 °F
Feels Like31.5 °C88.6 °F
Dewpoint21.8 °C71.2 °F
Winds
Speed and Direction1.0 m/s2.2 mi/h 1 kn53 °
Gust0.0 m/s0.00 mi/h 0 kn
SquallUnavailable
Pressure and Humidity
Pressure At Field Level1002.8 mb29.6 in
Pressure At Sea Level1007.7 mb29.8 in
Pressure Trend-0.6 mb-0.0 in
Pressure Tendency 8
Humidity65 %

Station Alarms & Warnings:

Ceilometer Alarms / Warnings:

Ceilometer Data Missing!
Historical Weather Phenomenon Graphs

Additional Information:

  METAR KQSI 232000Z AUTO 05001KT NCD 29/22 A2961 RMK AO2 SLP077 10359
  20290 58005 $=    
Cloud Cover
Layer 1 Undetected
Layer 2 Undetected
Layer 3 Undetected
Winds
2-minute Winds
Minimum0.6 m/s1.34 mi/h 1 kn38 °
Average1.0 m/s2.24 mi/h 1 kn52 °
Maximum1.4 m/s3.13 mi/h 2 kn58 °
10-minute Winds
Minimum0.4 m/s0.89 mi/h 0 kn21 °
Average0.9 m/s2.01 mi/h 1 kn37 °
Maximum1.4 m/s3.13 mi/h 2 kn58 °
Precipitation
Intensity0.00 mm/h0.00 in/h
Rainfall
1-hour Total0.00 mm0.00 in
3-hour Total0.00 mm0.00 in
6-hour Total0.00 mm0.00 in
24-hour Total0.00 mm0.00 in
Precipitation
1-hour Total0.00 mm0.00 in
3-hour Total0.00 mm0.00 in
6-hour Total0.00 mm0.00 in
24-hour Total0.00 mm0.00 in